Dati Storici

Data ora Umidita' aria (%) Temperatura aria (°C) Rad globale (W/m²) Gonioanemometro (°) Tacoanemometro (m/s) Pioggia (mm)
10-06-2020 18:10 97.9 % 15.087 -76.342 0.002 0 0
10-06-2020 18:00 97.9 % 14.977 -74.991 0.003 0 0
10-06-2020 17:50 97.9 % 15.048 -50.429 0.002 0 0
10-06-2020 17:40 97.9 % 15.026 -78.575 0.003 0 0
10-06-2020 17:30 97.9 % 14.842 -73 0.003 0 0
10-06-2020 17:20 97.9 % 14.893 -75.946 0.004 0 0
10-06-2020 17:10 97.9 % 15.003 -75.886 0.006 0 0
10-06-2020 17:00 97.9 % 14.558 -68.175 0.007 0 0
10-06-2020 16:50 97.9 % 14.113 -73 0.011 0 0
10-06-2020 16:40 97.9 % 14.056 -78.332 0.012 0 0
10-06-2020 16:30 97.9 % 13.812 -75.44 0.017 0 0
10-06-2020 16:20 97.9 % 13.861 -74.81 1.451 0 0
10-06-2020 16:10 97.8 % 13.059 -69.974 2.816 0 0
10-06-2020 16:00 96.2 % 13.104 -72.457 0.629 0 0
10-06-2020 15:50 73 % 16.469 -64.222 2.753 0 0
10-06-2020 15:40 78.5 % 19.167 -72.538 0.345 0 0
10-06-2020 15:30 74 % 19.537 -71.676 2.319 0 0
10-06-2020 15:20 70.7 % 19.872 -71.698 0.985 0 0
10-06-2020 15:10 71.2 % 19.989 -77.782 3.406 0 0
10-06-2020 15:00 70.2 % 19.523 -80.52 2.96 0 0

I dati sono presentati in modo automatico a scopo informativo. In seguito a verifica i dati possono subire modifiche o essere invalidati e non riportati negli archivi definitivi.